AirNav   Air Wisconsin Up To $57,000 Bonus
 
 573 users online  

38CN Sanborn Airport
Meridian, California, USA

GOING TO MERIDIAN?


FAA INFORMATION EFFECTIVE 03 NOVEMBER 2022

Location

FAA Identifier: 38CN
Lat/Long: 39-06-33.6140N 121-53-01.8930W
39-06.560233N 121-53.031550W
39.1093372,-121.8838592
(estimated)
Elevation: 36 ft. / 11.0 m (surveyed)
Variation: 16E (1985)
From city: 3 miles SE of MERIDIAN, CA
Time zone: UTC -8 (UTC -7 during Daylight Saving Time)
Zip code: 95957

Airport Operations

Airport use: Private use. Permission required prior to landing
Activation date: 04/1948
Control tower: no
ARTCC: OAKLAND CENTER
FSS: RANCHO MURIETA FLIGHT SERVICE STATION
Attendance: UNATNDD
Pattern altitude: 836 ft. MSL
Wind indicator: yes
Segmented circle: no

Airport Communications

WX ASOS at MYV (15 nm E): 118.475 (530-742-0695)

Nearby radio navigation aids

VOR radial/distance  VOR name  Freq  Var
ILAr053/7.1WILLIAMS VORTAC114.4018E
MYVr257/14.5MARYSVILLE VOR/DME110.8016E
MCCr303/34.7MC CLELLAN VOR/DME109.2017E

Airport Services

Parking: hangars
Airframe service: NONE
Powerplant service: NONE
Bottled oxygen: NONE
Bulk oxygen: NONE

Runway Information

Runway 16/34

Dimensions: 2745 x 95 ft. / 837 x 29 m
SOUTHEAST 1800' X 20' PAVED; REMAINDER GRAVEL.
Surface: asphalt/gravel
RUNWAY 16  RUNWAY 34
Traffic pattern: leftleft
Runway end identifier lights: nono

Airport Ownership and Management from official FAA records

Ownership: Privately-owned
Owner: G & D FARMS
22122 KARNAK RD
KNIGHTS LANDING, CA 95645
Phone 916-696-2221
Manager: TOM GIUSTI
22122 KARNAK RD
KNIGHTS LANDING, CA 95645
Phone 916-696-2221
530-685-0113

Additional Remarks

A58-34 ROAD AT 90' APCH END.
FOR CD CTC NORCAL APCH AT 916-361-6874.

Instrument Procedures

There are no published instrument procedures at 38CN.

Some nearby airports with instrument procedures:

O08 - Colusa County Airport (7 nm NW)
KMYV - Yuba County Airport (15 nm E)
KBAB - Beale Air Force Base (21 nm E)
KOVE - Oroville Municipal Airport (26 nm NE)
O41 - Watts-Woodland Airport (26 nm S)
 
Loc | Ops | Rwys | IFR | FBO | Links
Com | Nav | Svcs | Stats | Notes

Sonoma Jet Center
 
Area around 38CN (Sanborn Airport)
 
Road maps at: MapQuest Bing Google
 
Aerial photo
No photo
 
Sectional chart

 
Airport distance calculator
Flying to Sanborn Airport? Find the distance to fly.

From to 38CN

Sunrise and sunset
Times for 28-Nov-2022
 Local
(UTC-8)
 Zulu
(UTC)
Morning civil twilight06:3614:36
Sunrise07:0615:06
Sunset16:4500:45
Evening civil twilight17:1501:15

Current date and time
Zulu (UTC)  28-Nov-2022 11:18:14
Local (UTC-8)  28-Nov-2022 03:18:14
 
METAR
KBAB 
21nm E 
280555Z AUTO 10005KT 10SM CLR 08/03 A2998 RMK AO2 SLP155 T00840028 10162 20065 $
KOVE 
27nm NE 
281053Z AUTO 00000KT 10SM CLR 07/03 A2997 RMK AO2 SLP152 T00720028
KLHM 
28nm SE 
281055Z AUTO 09005KT 10SM CLR 03/01 A2994 RMK AO1
KSMF 
28nm SE 
280953Z 33005KT 10SM CLR 05/01 A2997 RMK AO2 SLP144 T00500011 $
TAF
NOTAMs
Click for the latest NOTAMs
NOTAMs are issued by the DoD/FAA and will open in a separate window not controlled by AirNav.

 

 
 

Would you like to see your business listed on this page?

 If your business provides an interesting product or service to pilots, flight crews, aircraft, or users of the Sanborn Airport, you should consider listing it here.  To start the listing process, click on the button below
 
Add a business
 

Other Pages about Sanborn Airport

Update a link
 
Copyright © AirNav, LLC. All rights reserved. Privacy Policy  Contact